Goss, Missouri
Current Conditions -  °F | °C
As of 9:15 PM on Saturday 20 Dec 2014 (Local Time) from KHAE Reporting Station
Overcast Overcast  
Wind Chill: 33°   Ceiling: 3100
Heat Index: 37°   Visibility: 7mi
Dew Point: 32°   Wind: 6mph
Humidity: 81%   Direction: 150°SSE
Pressure: 30.2"   Gusts: NA
Location:  39.5207°N, 92.0162°W
Report Text: KHAE 210315Z AUTO 15005KT 7SM OVC031 03/00 A3020 RMK AO2
Loading
Personal Weather Stations






























Interactive Weather Map New forecast layout! Learn more

10-Day Weather Forecast

Advertisements
Track Severe Weather on mobile